Emmanuel Tomasos — C6SS7 — position and weather

sailwx.info

Track history (hours):
 
Tides and Currents Weather Stations Pressure Air Temp Water Temp Dewpoint Dewpoint Depression Visibility Wind Speed Wind Dir Waves Ship Positions

Emmanuel Tomasos

Last reported at 2017-Mar-25 23:22 UTC. Time now 2017-Mar-29 03:11 UTC.
Position S 00°17' W 047°30'.

Length 182 m; draft 8 m.

Type: Tanker. MMSI: 311459000.

Date/timePositionNaut miles runAvg speedWind from/ knotsBaromVisibWave heightAir tempDewpointWater temp
2017-Mar-25 23:22S 00°17' W 047°30'1012.6
2017-Mar-25 22:34S 00°21' W 047°39'1010.3
2017-Mar-25 21:34S 00°27' W 047°47'9 8.9
2017-Mar-25 20:34S 00°29' W 047°56'10 9.8
2017-Mar-25 19:33S 00°34' W 048°05'1212.5
2017-Mar-25 18:34S 00°42' W 048°14'3015.2
2017-Mar-25 16:33S 01°07' W 048°31'1211.8
2017-Mar-25 15:33S 01°17' W 048°37'1313.4
2017-Mar-25 14:34S 01°29' W 048°44'3 2.8
2017-Mar-25 13:31S 01°32' W 048°44'0 0.2
2017-Mar-25 12:31S 01°31' W 048°44'1 0.8
2017-Mar-25 11:31S 01°32' W 048°45'0 0.0
2017-Mar-25 10:31S 01°32' W 048°45'0 0.0
2017-Mar-25 09:31S 01°32' W 048°45'0 0.0
2017-Mar-25 08:31S 01°32' W 048°45'0 0.0
2017-Mar-25 07:31S 01°32' W 048°45'0 0.0
2017-Mar-25 06:31S 01°32' W 048°45'0 0.2
2017-Mar-25 05:31S 01°32' W 048°45'0 0.2
2017-Mar-25 04:31S 01°32' W 048°45'0 0.2
2017-Mar-25 03:31S 01°32' W 048°45'0 0.0
2017-Mar-25 02:31S 01°32' W 048°45'0 0.0
2017-Mar-25 01:31S 01°32' W 048°45'0 0.0
2017-Mar-25 00:31S 01°32' W 048°45'0 0.1
2017-Mar-24 23:31S 01°32' W 048°45'0 0.1
2017-Mar-24 22:31S 01°32' W 048°45'0 0.0
2017-Mar-24 21:31S 01°32' W 048°45'0 0.0
2017-Mar-24 20:31S 01°32' W 048°45'0 0.0
2017-Mar-24 19:31S 01°32' W 048°45'0 0.0
2017-Mar-24 18:31S 01°32' W 048°45'0 0.0
2017-Mar-24 17:31S 01°32' W 048°45'0 0.0
2017-Mar-24 16:31S 01°32' W 048°45'0 0.0
2017-Mar-24 15:31S 01°32' W 048°45'0 0.0
2017-Mar-24 14:31S 01°32' W 048°45'0 0.0
2017-Mar-24 13:31S 01°32' W 048°45'1 1.2
2017-Mar-24 12:31S 01°31' W 048°44'1 1.3
2017-Mar-24 11:31S 01°32' W 048°45'0 0.1
2017-Mar-24 10:31S 01°32' W 048°45'0 0.0
2017-Mar-24 09:31S 01°32' W 048°45'0 0.0
2017-Mar-24 08:31S 01°32' W 048°45'0 0.0
2017-Mar-24 07:28S 01°32' W 048°45'0 0.4
2017-Mar-24 06:31S 01°31' W 048°45'1 0.6
2017-Mar-24 05:31S 01°32' W 048°45'0 0.2
2017-Mar-24 04:31S 01°32' W 048°45'0 0.2
2017-Mar-24 03:31S 01°32' W 048°45'0 0.0
2017-Mar-24 02:31S 01°32' W 048°45'0 0.0
2017-Mar-24 01:31S 01°32' W 048°45'0 0.3
2017-Mar-24 00:31S 01°32' W 048°45'0 0.4
2017-Mar-23 23:31S 01°32' W 048°45'0 0.2
2017-Mar-23 22:31S 01°32' W 048°45'0 0.0
2017-Mar-23 21:33S 01°32' W 048°45'0 0.0
2017-Mar-23 20:33S 01°32' W 048°45'0 0.0
2017-Mar-23 19:33S 01°32' W 048°45'0 0.0
2017-Mar-23 18:32S 01°32' W 048°45'0 0.0
2017-Mar-23 17:32S 01°32' W 048°45'0 0.0
2017-Mar-23 16:32S 01°32' W 048°45'0 0.0
2017-Mar-23 15:32S 01°32' W 048°45'0 0.4
2017-Mar-23 14:32S 01°31' W 048°45'0 0.2
2017-Mar-23 13:32S 01°32' W 048°45'0 0.1
2017-Mar-23 12:32S 01°32' W 048°45'0 0.2
2017-Mar-23 09:33S 01°32' W 048°45'1 0.8
2017-Mar-23 08:32S 01°31' W 048°45'0 0.2
2017-Mar-23 07:23S 01°31' W 048°45'0 0.1
2017-Mar-23 06:29S 01°31' W 048°45'0 0.0
2017-Mar-23 05:32S 01°31' W 048°45'0 0.0
2017-Mar-23 04:32S 01°31' W 048°45'0 0.0
2017-Mar-23 03:32S 01°31' W 048°45'0 0.1
2017-Mar-23 02:29S 01°31' W 048°45'0 0.0
2017-Mar-23 01:29S 01°31' W 048°45'1 1.3
2017-Mar-23 00:34S 01°29' W 048°45'1312.5
2017-Mar-22 23:34S 01°18' W 048°39'1312.9
2017-Mar-22 22:33S 01°08' W 048°31'2512.2
2017-Mar-22 20:31S 00°47' W 048°18'1211.6
2017-Mar-22 19:30S 00°38' W 048°11'9 9.7
2017-Mar-22 18:34S 00°32' W 048°03'1212.3
2017-Mar-22 17:34S 00°25' W 047°54'9 9.5
2017-Mar-22 16:34S 00°24' W 047°44'1 0.6
2017-Mar-22 15:33S 00°24' W 047°44'0 0.0
2017-Mar-22 14:33S 00°24' W 047°44'0 0.1
2017-Mar-22 13:34S 00°24' W 047°44'9 9.2
2017-Mar-22 12:33S 00°20' W 047°36'  
Track history (hours):
 
Tides and Currents Weather Stations Pressure Air Temp Water Temp Dewpoint Dewpoint Depression Visibility Wind Speed Wind Dir Waves Ship Positions

Emmanuel Tomasos

Last reported at 2017-Mar-25 23:22 UTC. Time now 2017-Mar-29 03:11 UTC.
Position S 00°17' W 047°30'.

Length 182 m; draft 8 m.

Type: Tanker. MMSI: 311459000.

Date/timePositionNaut miles runAvg speedWind from/ knotsBaromVisibWave heightAir tempDewpointWater temp
2017-Mar-25 23:22S 00°17' W 047°30'1012.6
2017-Mar-25 22:34S 00°21' W 047°39'1010.3
2017-Mar-25 21:34S 00°27' W 047°47'9 8.9
2017-Mar-25 20:34S 00°29' W 047°56'10 9.8
2017-Mar-25 19:33S 00°34' W 048°05'1212.5
2017-Mar-25 18:34S 00°42' W 048°14'3015.2
2017-Mar-25 16:33S 01°07' W 048°31'1211.8
2017-Mar-25 15:33S 01°17' W 048°37'1313.4
2017-Mar-25 14:34S 01°29' W 048°44'3 2.8
2017-Mar-25 13:31S 01°32' W 048°44'0 0.2
2017-Mar-25 12:31S 01°31' W 048°44'1 0.8
2017-Mar-25 11:31S 01°32' W 048°45'0 0.0
2017-Mar-25 10:31S 01°32' W 048°45'0 0.0
2017-Mar-25 09:31S 01°32' W 048°45'0 0.0
2017-Mar-25 08:31S 01°32' W 048°45'0 0.0
2017-Mar-25 07:31S 01°32' W 048°45'0 0.0
2017-Mar-25 06:31S 01°32' W 048°45'0 0.2
2017-Mar-25 05:31S 01°32' W 048°45'0 0.2
2017-Mar-25 04:31S 01°32' W 048°45'0 0.2
2017-Mar-25 03:31S 01°32' W 048°45'0 0.0
2017-Mar-25 02:31S 01°32' W 048°45'0 0.0
2017-Mar-25 01:31S 01°32' W 048°45'0 0.0
2017-Mar-25 00:31S 01°32' W 048°45'0 0.1
2017-Mar-24 23:31S 01°32' W 048°45'0 0.1
2017-Mar-24 22:31S 01°32' W 048°45'0 0.0
2017-Mar-24 21:31S 01°32' W 048°45'0 0.0
2017-Mar-24 20:31S 01°32' W 048°45'0 0.0
2017-Mar-24 19:31S 01°32' W 048°45'0 0.0
2017-Mar-24 18:31S 01°32' W 048°45'0 0.0
2017-Mar-24 17:31S 01°32' W 048°45'0 0.0
2017-Mar-24 16:31S 01°32' W 048°45'0 0.0
2017-Mar-24 15:31S 01°32' W 048°45'0 0.0
2017-Mar-24 14:31S 01°32' W 048°45'0 0.0
2017-Mar-24 13:31S 01°32' W 048°45'1 1.2
2017-Mar-24 12:31S 01°31' W 048°44'1 1.3
2017-Mar-24 11:31S 01°32' W 048°45'0 0.1
2017-Mar-24 10:31S 01°32' W 048°45'0 0.0
2017-Mar-24 09:31S 01°32' W 048°45'0 0.0
2017-Mar-24 08:31S 01°32' W 048°45'0 0.0
2017-Mar-24 07:28S 01°32' W 048°45'0 0.4
2017-Mar-24 06:31S 01°31' W 048°45'1 0.6
2017-Mar-24 05:31S 01°32' W 048°45'0 0.2
2017-Mar-24 04:31S 01°32' W 048°45'0 0.2
2017-Mar-24 03:31S 01°32' W 048°45'0 0.0
2017-Mar-24 02:31S 01°32' W 048°45'0 0.0
2017-Mar-24 01:31S 01°32' W 048°45'0 0.3
2017-Mar-24 00:31S 01°32' W 048°45'0 0.4
2017-Mar-23 23:31S 01°32' W 048°45'0 0.2
2017-Mar-23 22:31S 01°32' W 048°45'0 0.0
2017-Mar-23 21:33S 01°32' W 048°45'0 0.0
2017-Mar-23 20:33S 01°32' W 048°45'0 0.0
2017-Mar-23 19:33S 01°32' W 048°45'0 0.0
2017-Mar-23 18:32S 01°32' W 048°45'0 0.0
2017-Mar-23 17:32S 01°32' W 048°45'0 0.0
2017-Mar-23 16:32S 01°32' W 048°45'0 0.0
2017-Mar-23 15:32S 01°32' W 048°45'0 0.4
2017-Mar-23 14:32S 01°31' W 048°45'0 0.2
2017-Mar-23 13:32S 01°32' W 048°45'0 0.1
2017-Mar-23 12:32S 01°32' W 048°45'0 0.2
2017-Mar-23 09:33S 01°32' W 048°45'1 0.8
2017-Mar-23 08:32S 01°31' W 048°45'0 0.2
2017-Mar-23 07:23S 01°31' W 048°45'0 0.1
2017-Mar-23 06:29S 01°31' W 048°45'0 0.0
2017-Mar-23 05:32S 01°31' W 048°45'0 0.0
2017-Mar-23 04:32S 01°31' W 048°45'0 0.0
2017-Mar-23 03:32S 01°31' W 048°45'0 0.1
2017-Mar-23 02:29S 01°31' W 048°45'0 0.0
2017-Mar-23 01:29S 01°31' W 048°45'1 1.3
2017-Mar-23 00:34S 01°29' W 048°45'1312.5
2017-Mar-22 23:34S 01°18' W 048°39'1312.9
2017-Mar-22 22:33S 01°08' W 048°31'2512.2
2017-Mar-22 20:31S 00°47' W 048°18'1211.6
2017-Mar-22 19:30S 00°38' W 048°11'9 9.7
2017-Mar-22 18:34S 00°32' W 048°03'1212.3
2017-Mar-22 17:34S 00°25' W 047°54'9 9.5
2017-Mar-22 16:34S 00°24' W 047°44'1 0.6
2017-Mar-22 15:33S 00°24' W 047°44'0 0.0
2017-Mar-22 14:33S 00°24' W 047°44'0 0.1
2017-Mar-22 13:34S 00°24' W 047°44'9 9.2
2017-Mar-22 12:33S 00°20' W 047°36'  

Dump ship's entire track history